sensor_id;sensor_type;location;lat;lon;timestamp;pressure;altitude;pressure_sealevel;temperature;humidity
35989;BME280;22064;42.672;23.282;2024-01-07T00:00:35;93193.53;;;11.79;100.00
35989;BME280;22064;42.672;23.282;2024-01-07T00:03:01;93189.28;;;11.84;100.00
35989;BME280;22064;42.672;23.282;2024-01-07T00:05:27;93178.06;;;12.02;97.63
35989;BME280;22064;42.672;23.282;2024-01-07T00:07:53;93180.66;;;12.02;96.51
35989;BME280;22064;42.672;23.282;2024-01-07T00:10:19;93173.28;;;12.09;95.19
35989;BME280;22064;42.672;23.282;2024-01-07T00:12:44;93169.41;;;12.07;94.78
35989;BME280;22064;42.672;23.282;2024-01-07T00:15:10;93163.50;;;12.15;93.84
35989;BME280;22064;42.672;23.282;2024-01-07T00:17:36;93167.72;;;11.97;94.84
35989;BME280;22064;42.672;23.282;2024-01-07T00:20:02;93160.63;;;11.65;99.69
35989;BME280;22064;42.672;23.282;2024-01-07T00:22:29;93154.31;;;11.33;100.00
35989;BME280;22064;42.672;23.282;2024-01-07T00:24:55;93161.44;;;11.79;100.00
35989;BME280;22064;42.672;23.282;2024-01-07T00:27:21;93156.88;;;10.76;100.00
35989;BME280;22064;42.672;23.282;2024-01-07T00:29:47;93154.50;;;11.18;100.00
35989;BME280;22064;42.672;23.282;2024-01-07T00:32:13;93142.53;;;11.36;100.00
35989;BME280;22064;42.672;23.282;2024-01-07T00:34:39;93137.03;;;11.18;100.00
35989;BME280;22064;42.672;23.282;2024-01-07T00:37:04;93137.34;;;11.36;100.00
35989;BME280;22064;42.672;23.282;2024-01-07T00:39:31;93128.09;;;11.62;100.00
35989;BME280;22064;42.672;23.282;2024-01-07T00:41:57;93120.34;;;11.57;100.00
35989;BME280;22064;42.672;23.282;2024-01-07T00:44:23;93117.44;;;11.77;100.00
35989;BME280;22064;42.672;23.282;2024-01-07T00:46:49;93119.81;;;12.07;95.03
35989;BME280;22064;42.672;23.282;2024-01-07T00:49:15;93109.69;;;12.19;93.00
35989;BME280;22064;42.672;23.282;2024-01-07T00:51:42;93111.03;;;12.16;93.75
35989;BME280;22064;42.672;23.282;2024-01-07T00:54:08;93086.13;;;12.38;89.07
35989;BME280;22064;42.672;23.282;2024-01-07T00:56:34;93086.09;;;12.10;91.41
35989;BME280;22064;42.672;23.282;2024-01-07T00:59:00;93079.72;;;12.30;89.00
35989;BME280;22064;42.672;23.282;2024-01-07T01:01:27;93077.41;;;12.01;92.26
35989;BME280;22064;42.672;23.282;2024-01-07T01:03:53;93083.78;;;12.36;90.18
35989;BME280;22064;42.672;23.282;2024-01-07T01:06:19;93079.75;;;12.44;89.31
35989;BME280;22064;42.672;23.282;2024-01-07T01:08:45;93077.22;;;12.39;90.81
35989;BME280;22064;42.672;23.282;2024-01-07T01:11:11;93071.13;;;12.57;88.00
35989;BME280;22064;42.672;23.282;2024-01-07T01:13:37;93074.09;;;12.64;86.70
35989;BME280;22064;42.672;23.282;2024-01-07T01:16:03;93062.41;;;12.76;85.75
35989;BME280;22064;42.672;23.282;2024-01-07T01:18:29;93050.13;;;12.48;85.29
35989;BME280;22064;42.672;23.282;2024-01-07T01:20:56;93048.88;;;12.46;88.40
35989;BME280;22064;42.672;23.282;2024-01-07T01:23:22;93050.81;;;12.68;86.74
35989;BME280;22064;42.672;23.282;2024-01-07T01:25:48;93045.28;;;12.69;86.65
35989;BME280;22064;42.672;23.282;2024-01-07T01:28:14;93027.00;;;12.69;86.28
35989;BME280;22064;42.672;23.282;2024-01-07T01:30:40;93023.97;;;12.40;87.90
35989;BME280;22064;42.672;23.282;2024-01-07T01:33:06;93012.66;;;12.17;91.99
35989;BME280;22064;42.672;23.282;2024-01-07T01:35:32;93002.00;;;12.41;90.44
35989;BME280;22064;42.672;23.282;2024-01-07T01:37:58;92997.78;;;12.17;91.17
35989;BME280;22064;42.672;23.282;2024-01-07T01:40:24;92991.22;;;12.06;94.39
35989;BME280;22064;42.672;23.282;2024-01-07T01:42:50;92992.38;;;12.00;94.35
35989;BME280;22064;42.672;23.282;2024-01-07T01:45:17;92978.84;;;12.25;91.05
35989;BME280;22064;42.672;23.282;2024-01-07T01:47:43;92983.97;;;11.89;97.24
35989;BME280;22064;42.672;23.282;2024-01-07T01:50:10;92977.81;;;11.39;100.00
35989;BME280;22064;42.672;23.282;2024-01-07T01:52:36;92965.72;;;11.89;98.80
35989;BME280;22064;42.672;23.282;2024-01-07T01:55:02;92949.75;;;11.63;100.00
35989;BME280;22064;42.672;23.282;2024-01-07T01:57:33;92957.69;;;11.86;100.00
35989;BME280;22064;42.672;23.282;2024-01-07T02:00:03;92949.94;;;11.80;98.45
35989;BME280;22064;42.672;23.282;2024-01-07T02:02:31;92948.31;;;11.98;98.49
35989;BME280;22064;42.672;23.282;2024-01-07T02:05:03;92954.63;;;11.97;98.09
35989;BME280;22064;42.672;23.282;2024-01-07T02:07:30;92947.44;;;11.89;97.98
35989;BME280;22064;42.672;23.282;2024-01-07T02:09:56;92955.00;;;11.91;99.87
35989;BME280;22064;42.672;23.282;2024-01-07T02:12:22;92959.91;;;11.78;100.00
35989;BME280;22064;42.672;23.282;2024-01-07T02:14:48;92952.53;;;11.80;100.00
35989;BME280;22064;42.672;23.282;2024-01-07T02:17:15;92931.16;;;11.23;100.00
35989;BME280;22064;42.672;23.282;2024-01-07T02:19:41;92936.69;;;11.49;100.00
35989;BME280;22064;42.672;23.282;2024-01-07T02:22:07;92933.44;;;11.99;100.00
35989;BME280;22064;42.672;23.282;2024-01-07T02:24:33;92912.06;;;11.83;100.00
35989;BME280;22064;42.672;23.282;2024-01-07T02:26:59;92887.25;;;11.17;100.00
35989;BME280;22064;42.672;23.282;2024-01-07T02:29:28;92869.28;;;10.88;100.00
35989;BME280;22064;42.672;23.282;2024-01-07T02:31:54;92884.47;;;10.80;100.00
35989;BME280;22064;42.672;23.282;2024-01-07T02:34:20;92861.25;;;10.51;100.00
35989;BME280;22064;42.672;23.282;2024-01-07T02:36:46;92865.50;;;10.47;100.00
35989;BME280;22064;42.672;23.282;2024-01-07T02:39:12;92863.13;;;10.32;100.00
35989;BME280;22064;42.672;23.282;2024-01-07T02:41:38;92864.72;;;10.28;100.00
35989;BME280;22064;42.672;23.282;2024-01-07T02:44:04;92865.16;;;11.14;100.00
35989;BME280;22064;42.672;23.282;2024-01-07T02:46:31;92859.19;;;11.55;100.00
35989;BME280;22064;42.672;23.282;2024-01-07T02:48:57;92849.31;;;10.97;100.00
35989;BME280;22064;42.672;23.282;2024-01-07T02:51:23;92864.16;;;10.96;100.00
35989;BME280;22064;42.672;23.282;2024-01-07T02:53:49;92865.81;;;10.92;100.00
35989;BME280;22064;42.672;23.282;2024-01-07T02:56:15;92881.19;;;11.76;100.00
35989;BME280;22064;42.672;23.282;2024-01-07T02:58:41;92870.25;;;12.02;100.00
35989;BME280;22064;42.672;23.282;2024-01-07T03:01:10;92882.34;;;11.84;100.00
35989;BME280;22064;42.672;23.282;2024-01-07T03:03:36;92883.38;;;12.24;100.00
35989;BME280;22064;42.672;23.282;2024-01-07T03:06:03;92895.66;;;11.83;100.00
35989;BME280;22064;42.672;23.282;2024-01-07T03:08:29;92901.38;;;11.57;100.00
35989;BME280;22064;42.672;23.282;2024-01-07T03:10:55;92908.03;;;11.22;100.00
35989;BME280;22064;42.672;23.282;2024-01-07T03:13:21;92916.03;;;11.25;100.00
35989;BME280;22064;42.672;23.282;2024-01-07T03:15:47;92913.69;;;11.24;100.00
35989;BME280;22064;42.672;23.282;2024-01-07T03:18:13;92915.78;;;11.68;100.00
35989;BME280;22064;42.672;23.282;2024-01-07T03:20:39;92917.69;;;11.63;100.00
35989;BME280;22064;42.672;23.282;2024-01-07T03:23:05;92936.28;;;12.39;100.00
35989;BME280;22064;42.672;23.282;2024-01-07T03:25:31;92929.34;;;12.34;100.00
35989;BME280;22064;42.672;23.282;2024-01-07T03:27:57;92934.50;;;12.84;100.00
35989;BME280;22064;42.672;23.282;2024-01-07T03:30:23;92933.06;;;12.56;100.00
35989;BME280;22064;42.672;23.282;2024-01-07T03:32:49;92935.06;;;12.22;100.00
35989;BME280;22064;42.672;23.282;2024-01-07T03:35:15;92922.41;;;12.02;100.00
35989;BME280;22064;42.672;23.282;2024-01-07T03:37:41;92907.44;;;12.21;100.00
35989;BME280;22064;42.672;23.282;2024-01-07T03:40:11;92915.00;;;12.09;100.00
35989;BME280;22064;42.672;23.282;2024-01-07T03:42:37;92899.34;;;12.09;100.00
35989;BME280;22064;42.672;23.282;2024-01-07T03:45:04;92898.97;;;11.88;100.00
35989;BME280;22064;42.672;23.282;2024-01-07T03:47:30;92898.09;;;11.65;100.00
35989;BME280;22064;42.672;23.282;2024-01-07T03:49:57;92874.53;;;11.84;100.00
35989;BME280;22064;42.672;23.282;2024-01-07T03:52:23;92871.34;;;12.23;100.00
35989;BME280;22064;42.672;23.282;2024-01-07T03:54:49;92884.78;;;12.31;100.00
35989;BME280;22064;42.672;23.282;2024-01-07T03:57:15;92886.34;;;12.77;100.00
35989;BME280;22064;42.672;23.282;2024-01-07T03:59:41;92874.59;;;13.19;100.00
35989;BME280;22064;42.672;23.282;2024-01-07T04:02:07;92864.25;;;13.36;100.00
35989;BME280;22064;42.672;23.282;2024-01-07T04:04:33;92861.66;;;13.14;100.00
35989;BME280;22064;42.672;23.282;2024-01-07T04:06:59;92867.84;;;13.49;100.00
35989;BME280;22064;42.672;23.282;2024-01-07T04:09:24;92868.00;;;13.22;100.00
35989;BME280;22064;42.672;23.282;2024-01-07T04:11:50;92859.50;;;12.85;100.00
35989;BME280;22064;42.672;23.282;2024-01-07T04:14:16;92853.88;;;12.69;100.00
35989;BME280;22064;42.672;23.282;2024-01-07T04:16:42;92840.44;;;12.53;100.00
35989;BME280;22064;42.672;23.282;2024-01-07T04:19:08;92837.16;;;13.01;100.00
35989;BME280;22064;42.672;23.282;2024-01-07T04:21:34;92829.03;;;13.34;100.00
35989;BME280;22064;42.672;23.282;2024-01-07T04:24:01;92839.38;;;13.48;100.00
35989;BME280;22064;42.672;23.282;2024-01-07T04:26:27;92845.72;;;13.55;100.00
35989;BME280;22064;42.672;23.282;2024-01-07T04:28:53;92853.13;;;13.71;100.00
35989;BME280;22064;42.672;23.282;2024-01-07T04:31:19;92842.53;;;13.84;100.00
35989;BME280;22064;42.672;23.282;2024-01-07T04:33:45;92828.06;;;13.78;100.00
35989;BME280;22064;42.672;23.282;2024-01-07T04:36:11;92818.41;;;13.30;100.00
35989;BME280;22064;42.672;23.282;2024-01-07T04:38:37;92840.06;;;13.71;100.00
35989;BME280;22064;42.672;23.282;2024-01-07T04:41:03;92838.53;;;12.99;100.00
35989;BME280;22064;42.672;23.282;2024-01-07T04:43:28;92838.59;;;13.47;100.00
35989;BME280;22064;42.672;23.282;2024-01-07T04:45:55;92832.97;;;13.71;100.00
35989;BME280;22064;42.672;23.282;2024-01-07T04:48:21;92839.34;;;14.22;100.00
35989;BME280;22064;42.672;23.282;2024-01-07T04:50:47;92837.59;;;13.66;100.00
35989;BME280;22064;42.672;23.282;2024-01-07T04:53:12;92835.19;;;13.07;100.00
35989;BME280;22064;42.672;23.282;2024-01-07T04:55:39;92837.19;;;13.41;100.00
35989;BME280;22064;42.672;23.282;2024-01-07T04:58:05;92837.75;;;13.78;100.00
35989;BME280;22064;42.672;23.282;2024-01-07T05:00:31;92833.44;;;13.82;100.00
35989;BME280;22064;42.672;23.282;2024-01-07T05:02:57;92849.53;;;14.24;100.00
35989;BME280;22064;42.672;23.282;2024-01-07T05:05:23;92841.81;;;14.36;100.00
35989;BME280;22064;42.672;23.282;2024-01-07T05:07:49;92839.63;;;14.03;100.00
35989;BME280;22064;42.672;23.282;2024-01-07T05:10:15;92832.84;;;14.11;100.00
35989;BME280;22064;42.672;23.282;2024-01-07T05:12:40;92831.28;;;12.95;100.00
35989;BME280;22064;42.672;23.282;2024-01-07T05:15:07;92824.84;;;13.02;100.00
35989;BME280;22064;42.672;23.282;2024-01-07T05:17:33;92842.91;;;13.43;100.00
35989;BME280;22064;42.672;23.282;2024-01-07T05:19:59;92820.59;;;13.46;100.00
35989;BME280;22064;42.672;23.282;2024-01-07T05:22:25;92831.41;;;13.22;100.00
35989;BME280;22064;42.672;23.282;2024-01-07T05:24:51;92842.75;;;13.48;100.00
35989;BME280;22064;42.672;23.282;2024-01-07T05:27:17;92817.91;;;13.85;100.00
35989;BME280;22064;42.672;23.282;2024-01-07T05:29:46;92813.72;;;13.67;100.00
35989;BME280;22064;42.672;23.282;2024-01-07T05:32:12;92816.78;;;13.21;100.00
35989;BME280;22064;42.672;23.282;2024-01-07T05:34:38;92821.03;;;13.39;100.00
35989;BME280;22064;42.672;23.282;2024-01-07T05:37:04;92819.16;;;13.88;100.00
35989;BME280;22064;42.672;23.282;2024-01-07T05:39:30;92817.34;;;14.15;100.00
35989;BME280;22064;42.672;23.282;2024-01-07T05:41:56;92801.00;;;14.09;100.00
35989;BME280;22064;42.672;23.282;2024-01-07T05:44:22;92811.28;;;13.79;100.00
35989;BME280;22064;42.672;23.282;2024-01-07T05:46:48;92792.41;;;14.08;100.00
35989;BME280;22064;42.672;23.282;2024-01-07T05:49:14;92808.09;;;14.43;100.00
35989;BME280;22064;42.672;23.282;2024-01-07T05:51:40;92816.56;;;14.40;100.00
35989;BME280;22064;42.672;23.282;2024-01-07T05:54:06;92827.19;;;14.61;100.00
35989;BME280;22064;42.672;23.282;2024-01-07T05:56:32;92821.78;;;14.23;100.00
35989;BME280;22064;42.672;23.282;2024-01-07T05:58:58;92824.53;;;13.92;100.00
35989;BME280;22064;42.672;23.282;2024-01-07T06:01:24;92815.63;;;14.01;100.00
35989;BME280;22064;42.672;23.282;2024-01-07T06:03:50;92819.31;;;14.00;100.00
35989;BME280;22064;42.672;23.282;2024-01-07T06:06:16;92832.06;;;13.76;100.00
35989;BME280;22064;42.672;23.282;2024-01-07T06:08:42;92817.72;;;13.56;100.00
35989;BME280;22064;42.672;23.282;2024-01-07T06:11:08;92812.94;;;13.58;100.00
35989;BME280;22064;42.672;23.282;2024-01-07T06:13:35;92806.84;;;13.89;100.00
35989;BME280;22064;42.672;23.282;2024-01-07T06:16:00;92817.69;;;13.47;100.00
35989;BME280;22064;42.672;23.282;2024-01-07T06:18:26;92804.47;;;13.44;100.00
35989;BME280;22064;42.672;23.282;2024-01-07T06:20:52;92803.53;;;13.48;100.00
35989;BME280;22064;42.672;23.282;2024-01-07T06:23:18;92801.59;;;13.23;100.00
35989;BME280;22064;42.672;23.282;2024-01-07T06:25:44;92822.25;;;13.33;100.00
35989;BME280;22064;42.672;23.282;2024-01-07T06:28:10;92825.13;;;13.80;100.00
35989;BME280;22064;42.672;23.282;2024-01-07T06:30:36;92824.41;;;13.97;100.00
35989;BME280;22064;42.672;23.282;2024-01-07T06:33:02;92835.47;;;13.85;100.00
35989;BME280;22064;42.672;23.282;2024-01-07T06:35:28;92838.59;;;13.47;100.00
35989;BME280;22064;42.672;23.282;2024-01-07T06:37:54;92841.16;;;13.87;100.00
35989;BME280;22064;42.672;23.282;2024-01-07T06:40:20;92843.69;;;13.12;100.00
35989;BME280;22064;42.672;23.282;2024-01-07T06:42:46;92820.75;;;13.09;100.00
35989;BME280;22064;42.672;23.282;2024-01-07T06:45:18;92851.13;;;13.76;100.00
35989;BME280;22064;42.672;23.282;2024-01-07T06:47:44;92842.69;;;13.71;100.00
35989;BME280;22064;42.672;23.282;2024-01-07T06:50:10;92841.44;;;13.77;100.00
35989;BME280;22064;42.672;23.282;2024-01-07T06:52:36;92846.06;;;13.71;100.00
35989;BME280;22064;42.672;23.282;2024-01-07T06:55:02;92853.88;;;13.62;100.00
35989;BME280;22064;42.672;23.282;2024-01-07T06:57:28;92855.81;;;14.05;100.00
35989;BME280;22064;42.672;23.282;2024-01-07T06:59:54;92835.78;;;14.01;100.00
35989;BME280;22064;42.672;23.282;2024-01-07T07:02:20;92839.31;;;13.88;100.00
35989;BME280;22064;42.672;23.282;2024-01-07T07:04:47;92846.69;;;13.85;100.00
35989;BME280;22064;42.672;23.282;2024-01-07T07:07:13;92848.84;;;13.75;100.00
35989;BME280;22064;42.672;23.282;2024-01-07T07:09:43;92835.31;;;13.81;100.00
35989;BME280;22064;42.672;23.282;2024-01-07T07:12:08;92853.47;;;13.95;100.00
35989;BME280;22064;42.672;23.282;2024-01-07T07:14:34;92846.06;;;13.89;100.00
35989;BME280;22064;42.672;23.282;2024-01-07T07:17:00;92833.34;;;14.30;100.00
35989;BME280;22064;42.672;23.282;2024-01-07T07:19:26;92849.66;;;14.45;100.00
35989;BME280;22064;42.672;23.282;2024-01-07T07:21:52;92816.09;;;14.47;100.00
35989;BME280;22064;42.672;23.282;2024-01-07T07:24:19;92827.03;;;14.40;100.00
35989;BME280;22064;42.672;23.282;2024-01-07T07:26:45;92832.56;;;13.38;100.00
35989;BME280;22064;42.672;23.282;2024-01-07T07:29:11;92842.09;;;13.34;100.00
35989;BME280;22064;42.672;23.282;2024-01-07T07:31:37;92836.69;;;13.79;100.00
35989;BME280;22064;42.672;23.282;2024-01-07T07:34:04;92850.13;;;14.29;100.00
35989;BME280;22064;42.672;23.282;2024-01-07T07:36:31;92849.97;;;14.78;100.00
35989;BME280;22064;42.672;23.282;2024-01-07T07:38:57;92838.53;;;14.91;100.00
35989;BME280;22064;42.672;23.282;2024-01-07T07:41:23;92840.28;;;14.18;100.00
35989;BME280;22064;42.672;23.282;2024-01-07T07:43:49;92834.88;;;14.49;100.00
35989;BME280;22064;42.672;23.282;2024-01-07T07:46:15;92836.97;;;14.99;100.00
35989;BME280;22064;42.672;23.282;2024-01-07T07:48:42;92835.50;;;15.28;100.00
35989;BME280;22064;42.672;23.282;2024-01-07T07:51:08;92840.09;;;14.75;100.00
35989;BME280;22064;42.672;23.282;2024-01-07T07:53:34;92838.38;;;13.75;100.00
35989;BME280;22064;42.672;23.282;2024-01-07T07:56:01;92839.28;;;13.79;100.00
35989;BME280;22064;42.672;23.282;2024-01-07T07:58:27;92828.13;;;14.39;100.00
35989;BME280;22064;42.672;23.282;2024-01-07T08:00:53;92823.16;;;14.64;100.00
35989;BME280;22064;42.672;23.282;2024-01-07T08:03:19;92823.56;;;15.00;100.00
35989;BME280;22064;42.672;23.282;2024-01-07T08:05:44;92825.78;;;15.28;100.00
35989;BME280;22064;42.672;23.282;2024-01-07T08:08:10;92837.03;;;15.29;100.00
35989;BME280;22064;42.672;23.282;2024-01-07T08:10:36;92813.78;;;14.63;100.00
35989;BME280;22064;42.672;23.282;2024-01-07T08:13:02;92831.28;;;14.97;100.00
35989;BME280;22064;42.672;23.282;2024-01-07T08:15:28;92809.34;;;15.10;100.00
35989;BME280;22064;42.672;23.282;2024-01-07T08:17:54;92833.19;;;15.64;100.00
35989;BME280;22064;42.672;23.282;2024-01-07T08:20:20;92831.94;;;15.70;100.00
35989;BME280;22064;42.672;23.282;2024-01-07T08:22:46;92833.72;;;15.79;100.00
35989;BME280;22064;42.672;23.282;2024-01-07T08:25:12;92830.38;;;15.99;100.00
35989;BME280;22064;42.672;23.282;2024-01-07T08:27:41;92819.50;;;15.12;100.00
35989;BME280;22064;42.672;23.282;2024-01-07T08:30:07;92828.03;;;14.91;100.00
35989;BME280;22064;42.672;23.282;2024-01-07T08:32:33;92816.16;;;15.02;100.00
35989;BME280;22064;42.672;23.282;2024-01-07T08:35:01;92825.88;;;15.40;100.00
35989;BME280;22064;42.672;23.282;2024-01-07T08:37:27;92824.28;;;15.86;100.00
35989;BME280;22064;42.672;23.282;2024-01-07T08:39:53;92835.19;;;16.18;100.00
35989;BME280;22064;42.672;23.282;2024-01-07T08:42:19;92832.56;;;16.39;100.00
35989;BME280;22064;42.672;23.282;2024-01-07T08:44:45;92829.47;;;16.58;97.00
35989;BME280;22064;42.672;23.282;2024-01-07T08:47:13;92846.84;;;16.29;95.86
35989;BME280;22064;42.672;23.282;2024-01-07T08:49:39;92821.53;;;16.46;95.14
35989;BME280;22064;42.672;23.282;2024-01-07T08:52:05;92813.81;;;16.61;91.08
35989;BME280;22064;42.672;23.282;2024-01-07T08:54:31;92816.06;;;16.51;90.47
35989;BME280;22064;42.672;23.282;2024-01-07T08:56:57;92805.38;;;16.89;88.90
35989;BME280;22064;42.672;23.282;2024-01-07T08:59:23;92807.41;;;17.17;88.59
35989;BME280;22064;42.672;23.282;2024-01-07T09:01:49;92801.66;;;16.90;87.22
35989;BME280;22064;42.672;23.282;2024-01-07T09:04:15;92803.22;;;16.70;92.08
35989;BME280;22064;42.672;23.282;2024-01-07T09:06:46;92810.13;;;17.08;86.62
35989;BME280;22064;42.672;23.282;2024-01-07T09:09:12;92814.19;;;17.18;85.20
35989;BME280;22064;42.672;23.282;2024-01-07T09:11:38;92815.84;;;17.22;84.82
35989;BME280;22064;42.672;23.282;2024-01-07T09:14:04;92812.25;;;17.51;84.30
35989;BME280;22064;42.672;23.282;2024-01-07T09:16:31;92814.44;;;17.49;79.94
35989;BME280;22064;42.672;23.282;2024-01-07T09:18:56;92834.19;;;17.68;74.10
35989;BME280;22064;42.672;23.282;2024-01-07T09:21:22;92828.94;;;17.80;73.22
35989;BME280;22064;42.672;23.282;2024-01-07T09:23:49;92828.72;;;17.85;75.00
35989;BME280;22064;42.672;23.282;2024-01-07T09:26:15;92826.28;;;18.05;73.75
35989;BME280;22064;42.672;23.282;2024-01-07T09:28:41;92815.03;;;18.32;70.10
35989;BME280;22064;42.672;23.282;2024-01-07T09:31:08;92822.94;;;18.32;67.93
35989;BME280;22064;42.672;23.282;2024-01-07T09:33:34;92824.41;;;18.45;67.54
35989;BME280;22064;42.672;23.282;2024-01-07T09:36:00;92794.09;;;18.52;66.64
35989;BME280;22064;42.672;23.282;2024-01-07T09:38:26;92807.59;;;18.78;63.42
35989;BME280;22064;42.672;23.282;2024-01-07T09:40:52;92809.91;;;18.80;63.08
35989;BME280;22064;42.672;23.282;2024-01-07T09:43:19;92815.88;;;18.77;62.48
35989;BME280;22064;42.672;23.282;2024-01-07T09:45:46;92814.56;;;19.14;61.72
35989;BME280;22064;42.672;23.282;2024-01-07T09:48:13;92804.91;;;19.06;59.64
35989;BME280;22064;42.672;23.282;2024-01-07T09:50:41;92808.16;;;19.15;58.89
35989;BME280;22064;42.672;23.282;2024-01-07T09:53:07;92800.69;;;19.33;57.22
35989;BME280;22064;42.672;23.282;2024-01-07T09:55:51;92811.06;;;19.42;56.83
35989;BME280;22064;42.672;23.282;2024-01-07T09:58:19;92806.06;;;18.49;57.08
35989;BME280;22064;42.672;23.282;2024-01-07T10:00:45;92801.25;;;18.95;57.59
35989;BME280;22064;42.672;23.282;2024-01-07T10:03:10;92806.16;;;18.81;57.27
35989;BME280;22064;42.672;23.282;2024-01-07T10:05:36;92800.88;;;18.81;57.98
35989;BME280;22064;42.672;23.282;2024-01-07T10:08:02;92787.31;;;18.95;58.81
35989;BME280;22064;42.672;23.282;2024-01-07T10:10:28;92784.00;;;18.82;58.42
35989;BME280;22064;42.672;23.282;2024-01-07T10:12:54;92791.41;;;19.24;57.13
35989;BME280;22064;42.672;23.282;2024-01-07T10:15:23;92769.72;;;19.14;55.53
35989;BME280;22064;42.672;23.282;2024-01-07T10:17:49;92764.19;;;18.88;52.60
35989;BME280;22064;42.672;23.282;2024-01-07T10:20:16;92740.28;;;18.68;53.57
35989;BME280;22064;42.672;23.282;2024-01-07T10:22:49;92752.84;;;19.03;53.84
35989;BME280;22064;42.672;23.282;2024-01-07T10:25:15;92757.94;;;17.96;53.92
35989;BME280;22064;42.672;23.282;2024-01-07T10:27:42;92751.56;;;18.53;52.94
35989;BME280;22064;42.672;23.282;2024-01-07T10:30:08;92746.28;;;18.81;51.51
35989;BME280;22064;42.672;23.282;2024-01-07T10:32:38;92747.84;;;18.98;50.87
35989;BME280;22064;42.672;23.282;2024-01-07T10:35:04;92754.97;;;19.45;49.89
35989;BME280;22064;42.672;23.282;2024-01-07T10:37:31;92741.53;;;19.19;52.04
35989;BME280;22064;42.672;23.282;2024-01-07T10:39:58;92739.09;;;19.10;53.54
35989;BME280;22064;42.672;23.282;2024-01-07T10:42:32;92734.03;;;19.36;53.53
35989;BME280;22064;42.672;23.282;2024-01-07T10:45:02;92736.94;;;19.47;52.92
35989;BME280;22064;42.672;23.282;2024-01-07T10:47:30;92729.97;;;19.74;52.25
35989;BME280;22064;42.672;23.282;2024-01-07T10:49:58;92729.47;;;19.84;51.11
35989;BME280;22064;42.672;23.282;2024-01-07T10:52:28;92741.50;;;20.01;50.41
35989;BME280;22064;42.672;23.282;2024-01-07T10:55:03;92727.63;;;19.37;51.98
35989;BME280;22064;42.672;23.282;2024-01-07T10:57:39;92740.50;;;19.39;52.41
35989;BME280;22064;42.672;23.282;2024-01-07T11:00:09;92737.50;;;19.56;53.72
35989;BME280;22064;42.672;23.282;2024-01-07T11:02:57;92730.19;;;19.34;53.92
35989;BME280;22064;42.672;23.282;2024-01-07T11:05:37;92728.25;;;19.15;54.41
35989;BME280;22064;42.672;23.282;2024-01-07T11:10:39;92742.31;;;19.19;54.04
35989;BME280;22064;42.672;23.282;2024-01-07T11:13:07;92746.63;;;19.43;53.14
35989;BME280;22064;42.672;23.282;2024-01-07T11:18:39;92736.03;;;19.75;51.27
35989;BME280;22064;42.672;23.282;2024-01-07T11:21:06;92742.78;;;19.72;50.93
35989;BME280;22064;42.672;23.282;2024-01-07T11:23:35;92739.78;;;19.58;50.44
35989;BME280;22064;42.672;23.282;2024-01-07T11:26:06;92749.91;;;19.72;49.61
35989;BME280;22064;42.672;23.282;2024-01-07T11:28:52;92739.75;;;19.23;50.29
35989;BME280;22064;42.672;23.282;2024-01-07T11:31:20;92746.13;;;19.53;49.67
35989;BME280;22064;42.672;23.282;2024-01-07T11:33:50;92740.47;;;19.71;48.98
35989;BME280;22064;42.672;23.282;2024-01-07T11:36:17;92739.47;;;19.28;49.42
35989;BME280;22064;42.672;23.282;2024-01-07T11:38:50;92737.34;;;19.49;49.46
35989;BME280;22064;42.672;23.282;2024-01-07T11:41:16;92740.50;;;19.39;49.59
35989;BME280;22064;42.672;23.282;2024-01-07T11:43:57;92749.44;;;19.66;49.61
35989;BME280;22064;42.672;23.282;2024-01-07T11:46:25;92748.19;;;19.79;48.97
35989;BME280;22064;42.672;23.282;2024-01-07T11:48:56;92741.53;;;19.50;50.42
35989;BME280;22064;42.672;23.282;2024-01-07T11:51:29;92748.25;;;19.48;50.15
35989;BME280;22064;42.672;23.282;2024-01-07T11:53:59;92742.19;;;19.31;50.68
35989;BME280;22064;42.672;23.282;2024-01-07T11:56:25;92747.84;;;19.30;51.73
35989;BME280;22064;42.672;23.282;2024-01-07T11:58:54;92747.75;;;19.10;52.33
35989;BME280;22064;42.672;23.282;2024-01-07T12:01:23;92741.53;;;19.50;51.52
35989;BME280;22064;42.672;23.282;2024-01-07T12:03:51;92741.47;;;19.82;51.21
35989;BME280;22064;42.672;23.282;2024-01-07T12:06:18;92739.28;;;20.03;50.10
35989;BME280;22064;42.672;23.282;2024-01-07T12:08:44;92737.03;;;19.86;50.26
35989;BME280;22064;42.672;23.282;2024-01-07T12:11:15;92735.81;;;19.64;50.82
35989;BME280;22064;42.672;23.282;2024-01-07T12:13:42;92752.66;;;19.59;51.15
35989;BME280;22064;42.672;23.282;2024-01-07T12:16:09;92744.38;;;19.61;51.03
35989;BME280;22064;42.672;23.282;2024-01-07T12:18:36;92740.31;;;19.48;51.25
35989;BME280;22064;42.672;23.282;2024-01-07T12:21:03;92739.66;;;19.35;51.27
35989;BME280;22064;42.672;23.282;2024-01-07T12:23:37;92749.16;;;19.55;51.03
35989;BME280;22064;42.672;23.282;2024-01-07T12:26:10;92751.19;;;19.78;50.62
35989;BME280;22064;42.672;23.282;2024-01-07T12:28:37;92741.75;;;19.61;50.70
35989;BME280;22064;42.672;23.282;2024-01-07T12:31:07;92746.88;;;19.54;51.17
35989;BME280;22064;42.672;23.282;2024-01-07T12:33:33;92741.75;;;19.61;50.73
35989;BME280;22064;42.672;23.282;2024-01-07T12:36:00;92750.09;;;19.79;50.05
35989;BME280;22064;42.672;23.282;2024-01-07T12:38:30;92753.16;;;19.65;50.43
35989;BME280;22064;42.672;23.282;2024-01-07T12:40:56;92753.16;;;19.49;50.91
35989;BME280;22064;42.672;23.282;2024-01-07T12:43:22;92743.41;;;19.34;51.47
35989;BME280;22064;42.672;23.282;2024-01-07T12:45:48;92740.97;;;19.25;51.97
35989;BME280;22064;42.672;23.282;2024-01-07T12:48:15;92747.81;;;19.46;51.44